Friendship, New York
Current Conditions -  °F | °C
As of 11:56 PM on Saturday 25 Oct 2014 (Local Time) from KELZ Reporting Station
Broken Clouds Broken Clouds  
Wind Chill: 53°   Ceiling: 3900
Heat Index: 53°   Visibility: 10mi
Dew Point: 42°   Wind: 20mph
Humidity: 66%   Direction: 300°WNW
Pressure: 29.65"   Gusts: 37mph
Location:  42.21°N, 78.14°W
Report Text: KELZ 260356Z AUTO 30017G32KT 10SM SCT030 BKN039 12/06 A2965 RMK AO2 PK WND 30032/0353 LTG DSNT NE SLP037 T01170056
Loading
Personal Weather Stations






























Interactive Weather Map
Tropical Storm Tracking
New forecast layout! Learn more

10-Day Weather Forecast

Advertisements
Track Severe Weather on mobile